createdAt,value
2022-09-25T00:02:53.514Z,28.02
2022-09-25T00:07:56.520Z,29.77
2022-09-25T00:12:58.260Z,29.08
2022-09-25T00:18:00.007Z,29.52
2022-09-25T00:23:02.362Z,32.55
2022-09-25T00:28:04.131Z,29.48
2022-09-25T00:33:05.958Z,30.75
2022-09-25T00:38:07.669Z,29.00
2022-09-25T00:43:46.269Z,28.08
2022-09-25T00:49:22.478Z,26.25
2022-09-25T00:54:34.659Z,28.80
2022-09-25T00:59:41.481Z,26.00
2022-09-25T01:04:46.258Z,25.88
2022-09-25T01:09:48.350Z,26.33
2022-09-25T01:14:50.214Z,27.25
2022-09-25T01:20:16.865Z,26.65
2022-09-25T01:25:21.627Z,25.00
2022-09-25T01:30:23.869Z,24.38
2022-09-25T01:36:04.128Z,22.08
2022-09-25T01:41:14.204Z,21.50
2022-09-25T01:46:19.675Z,21.65
2022-09-25T01:51:44.930Z,21.48
2022-09-25T01:56:53.700Z,23.95
2022-09-25T02:01:57.115Z,19.67
2022-09-25T02:07:03.767Z,20.17
2022-09-25T02:12:21.011Z,19.08
2022-09-25T02:17:51.000Z,19.80
2022-09-25T02:22:55.563Z,20.95
2022-09-25T02:27:57.323Z,20.15
2022-09-25T02:32:59.041Z,20.55
2022-09-25T02:38:00.848Z,19.42
2022-09-25T02:43:11.868Z,20.77
2022-09-25T02:48:27.425Z,21.45
2022-09-25T02:54:01.232Z,19.13
2022-09-25T02:59:08.970Z,20.70
2022-09-25T03:04:12.079Z,20.02
2022-09-25T03:09:18.682Z,21.55
2022-09-25T03:14:20.905Z,19.25
2022-09-25T03:19:25.046Z,18.65
2022-09-25T03:24:27.234Z,19.60
2022-09-25T03:29:31.136Z,23.13
2022-09-25T03:34:32.911Z,20.48
2022-09-25T03:39:34.713Z,19.30
2022-09-25T03:44:38.752Z,20.08
2022-09-25T03:49:40.543Z,20.05
2022-09-25T03:54:42.256Z,20.60
2022-09-25T03:59:44.036Z,24.10
2022-09-25T04:04:45.927Z,21.98
2022-09-25T04:09:47.728Z,20.17
2022-09-25T04:14:49.508Z,19.67
2022-09-25T04:19:52.708Z,20.98
2022-09-25T04:24:54.982Z,22.17
2022-09-25T04:29:57.289Z,21.85
2022-09-25T04:34:59.262Z,20.15
2022-09-25T04:40:01.182Z,18.83
2022-09-25T04:45:03.225Z,20.85
2022-09-25T04:50:05.158Z,20.75
2022-09-25T04:55:07.005Z,21.90
2022-09-25T05:00:09.212Z,19.77
2022-09-25T05:05:10.785Z,19.13
2022-09-25T05:10:14.749Z,19.30
2022-09-25T05:15:16.469Z,20.40
2022-09-25T05:20:18.075Z,20.67
2022-09-25T05:25:20.047Z,20.80
2022-09-25T05:30:22.651Z,21.27
2022-09-25T05:35:24.908Z,20.65
2022-09-25T05:40:26.786Z,21.65
2022-09-25T05:45:28.446Z,21.10
2022-09-25T05:50:32.401Z,21.02
2022-09-25T05:55:34.052Z,24.05
2022-09-25T06:00:35.569Z,23.60
2022-09-25T06:05:37.198Z,23.70
2022-09-25T06:10:39.533Z,25.23
2022-09-25T06:15:42.133Z,26.52
2022-09-25T06:20:43.973Z,27.20
2022-09-25T06:25:45.870Z,29.48
2022-09-25T06:30:47.746Z,26.55
2022-09-25T06:35:50.184Z,25.15
2022-09-25T06:40:51.815Z,27.25
2022-09-25T06:45:53.443Z,26.25
2022-09-25T06:50:57.133Z,23.83
2022-09-25T06:55:59.869Z,22.38
2022-09-25T07:01:04.157Z,20.52
2022-09-25T07:06:11.175Z,20.75
2022-09-25T07:11:22.440Z,19.30
2022-09-25T07:16:26.827Z,23.58
2022-09-25T07:21:32.076Z,21.20
2022-09-25T07:26:34.617Z,22.58
2022-09-25T07:31:38.069Z,22.20
2022-09-25T07:36:41.173Z,22.25
2022-09-25T07:41:42.815Z,20.50
2022-09-25T07:46:45.894Z,21.00
2022-09-25T07:51:47.634Z,20.83
2022-09-25T07:56:49.332Z,21.42
2022-09-25T08:01:53.959Z,18.80
2022-09-25T08:06:58.953Z,21.65
2022-09-25T08:12:00.570Z,22.30
2022-09-25T08:17:02.141Z,20.02
2022-09-25T08:22:03.761Z,22.33
2022-09-25T08:27:05.402Z,23.48
2022-09-25T08:32:06.989Z,22.67
2022-09-25T08:37:10.178Z,23.75
2022-09-25T08:42:19.911Z,20.00
2022-09-25T08:47:44.558Z,20.30
2022-09-25T08:52:49.586Z,25.05
2022-09-25T08:57:55.452Z,22.80
2022-09-25T09:02:58.724Z,21.65
2022-09-25T09:08:12.136Z,23.45
2022-09-25T09:13:28.730Z,22.88
2022-09-25T09:18:37.518Z,23.20
2022-09-25T09:23:51.129Z,23.55
2022-09-25T09:29:49.983Z,23.77
2022-09-25T09:35:06.212Z,24.60
2022-09-25T09:40:39.506Z,22.05
2022-09-25T09:45:49.871Z,22.92
2022-09-25T09:50:56.779Z,26.67
2022-09-25T09:56:07.353Z,24.90
2022-09-25T10:01:36.541Z,21.30
2022-09-25T10:06:39.018Z,22.45
2022-09-25T10:11:42.065Z,23.80
2022-09-25T10:16:43.652Z,24.55
2022-09-25T10:21:53.765Z,22.70
2022-09-25T10:26:55.398Z,21.98
2022-09-25T10:32:03.990Z,27.67
2022-09-25T10:37:20.339Z,23.65
2022-09-25T10:43:14.765Z,21.67
2022-09-25T10:48:50.572Z,24.63
2022-09-25T10:54:09.972Z,24.80
2022-09-25T10:59:20.534Z,26.95
2022-09-25T11:04:28.256Z,26.75
2022-09-25T11:09:32.522Z,24.05
2022-09-25T11:14:36.088Z,27.00
2022-09-25T11:19:38.825Z,24.38
2022-09-25T11:24:46.679Z,25.98
2022-09-25T11:30:02.653Z,22.92
2022-09-25T11:35:23.182Z,21.02
2022-09-25T11:40:52.362Z,23.40
2022-09-25T11:46:02.632Z,24.00
2022-09-25T11:51:22.842Z,21.40
2022-09-25T11:56:56.902Z,21.23
2022-09-25T12:02:15.955Z,25.33
2022-09-25T12:07:43.853Z,20.63
2022-09-25T12:13:05.756Z,20.98
2022-09-25T12:18:39.355Z,21.20
2022-09-25T12:23:52.376Z,20.08
2022-09-25T12:29:11.789Z,21.77
2022-09-25T12:34:40.211Z,26.63
2022-09-25T12:39:47.649Z,22.45
2022-09-25T12:45:13.042Z,23.30
2022-09-25T12:50:17.503Z,24.75
2022-09-25T12:55:26.619Z,22.90
2022-09-25T13:00:31.580Z,23.60
2022-09-25T13:05:44.329Z,24.63
2022-09-25T13:11:02.248Z,20.10
2022-09-25T13:16:06.367Z,24.65
2022-09-25T13:21:36.612Z,19.75
2022-09-25T13:26:52.684Z,20.67
2022-09-25T13:32:25.126Z,21.75
2022-09-25T13:37:32.978Z,21.85
2022-09-25T13:42:39.111Z,21.50
2022-09-25T13:47:53.964Z,22.95
2022-09-25T13:53:16.699Z,20.63
2022-09-25T13:58:23.157Z,19.50
2022-09-25T14:03:45.775Z,22.70
2022-09-25T14:08:48.228Z,18.80
2022-09-25T14:13:55.205Z,18.88
2022-09-25T14:18:59.185Z,18.02
2022-09-25T14:24:36.035Z,19.02
2022-09-25T14:29:41.141Z,18.80
2022-09-25T14:34:42.663Z,13.40
2022-09-25T14:40:18.057Z,12.88
2022-09-25T14:45:51.878Z,12.45
2022-09-25T14:50:57.964Z,11.77
2022-09-25T14:56:02.549Z,8.13
2022-09-25T15:01:26.367Z,8.85
2022-09-25T15:06:34.098Z,7.53
2022-09-25T15:11:43.547Z,7.20
2022-09-25T15:17:24.010Z,6.43
2022-09-25T15:22:31.385Z,5.90
2022-09-25T15:27:34.665Z,6.38
2022-09-25T15:32:39.961Z,7.25
2022-09-25T15:37:41.946Z,5.75
2022-09-25T15:42:48.892Z,6.93
2022-09-25T15:47:53.182Z,6.22
2022-09-25T15:52:59.106Z,6.43
2022-09-25T15:58:08.031Z,6.38
2022-09-25T16:03:48.738Z,6.32
2022-09-25T16:09:08.640Z,6.53
2022-09-25T16:14:36.758Z,8.52
2022-09-25T16:19:41.145Z,7.80
2022-09-25T16:24:43.053Z,6.97
2022-09-25T16:29:45.125Z,7.65
2022-09-25T16:35:05.259Z,8.45
2022-09-25T16:40:25.433Z,8.90
2022-09-25T16:45:29.555Z,10.82
2022-09-25T16:50:39.553Z,9.77
2022-09-25T16:55:48.945Z,11.07
2022-09-25T17:00:51.033Z,9.27
2022-09-25T17:05:52.873Z,16.33
2022-09-25T17:10:54.626Z,18.38
2022-09-25T17:15:57.591Z,16.48
2022-09-25T17:21:02.484Z,18.65
2022-09-25T17:26:13.057Z,27.95
2022-09-25T17:31:22.153Z,22.48
2022-09-25T17:36:24.062Z,21.50
2022-09-25T17:41:33.430Z,18.60
2022-09-25T17:46:36.308Z,18.98
2022-09-25T17:51:39.135Z,16.05
2022-09-25T17:56:42.673Z,17.40
2022-09-25T18:01:44.624Z,16.23
2022-09-25T18:06:47.090Z,17.42
2022-09-25T18:11:48.858Z,16.63
2022-09-25T18:16:50.624Z,15.68
2022-09-25T18:22:10.956Z,14.10
2022-09-25T18:27:14.992Z,13.35
2022-09-25T18:32:16.859Z,15.18
2022-09-25T18:37:18.672Z,14.95
2022-09-25T18:42:20.529Z,19.90
2022-09-25T18:47:22.355Z,18.50
2022-09-25T18:52:24.298Z,18.05
2022-09-25T18:57:27.388Z,17.08
2022-09-25T19:02:31.590Z,20.42
2022-09-25T19:07:33.695Z,20.63
2022-09-25T19:12:35.750Z,24.00
2022-09-25T19:17:37.649Z,18.98
2022-09-25T19:22:41.158Z,17.58
2022-09-25T19:27:42.930Z,15.50
2022-09-25T19:32:44.708Z,13.68
2022-09-25T19:37:46.440Z,13.23
2022-09-25T19:42:49.567Z,12.85
2022-09-25T19:47:51.378Z,11.90
2022-09-25T19:52:54.785Z,12.98
2022-09-25T19:57:56.662Z,13.13
2022-09-25T20:02:58.713Z,14.77
2022-09-25T20:08:00.627Z,18.27
2022-09-25T20:13:02.909Z,15.18
2022-09-25T20:18:07.924Z,13.73
2022-09-25T20:23:10.182Z,13.65
2022-09-25T20:28:12.994Z,14.57
2022-09-25T20:33:14.740Z,15.63
2022-09-25T20:38:17.007Z,15.07
2022-09-25T20:43:18.845Z,18.10
2022-09-25T20:48:21.813Z,20.35
2022-09-25T20:53:23.851Z,17.45
2022-09-25T20:58:25.655Z,17.38
2022-09-25T21:03:30.568Z,16.85
2022-09-25T21:08:33.521Z,16.73
2022-09-25T21:13:36.286Z,17.83
2022-09-25T21:18:40.762Z,18.15
2022-09-25T21:23:43.630Z,19.40
2022-09-25T21:28:47.890Z,19.17
2022-09-25T21:33:57.062Z,20.10
2022-09-25T21:39:00.359Z,23.15
2022-09-25T21:44:06.060Z,22.40
2022-09-25T21:49:08.796Z,23.48
2022-09-25T21:54:12.430Z,23.10
2022-09-25T21:59:14.682Z,22.30
2022-09-25T22:04:16.713Z,22.35
2022-09-25T22:09:21.983Z,24.27
2022-09-25T22:14:23.873Z,25.58
2022-09-25T22:19:30.047Z,27.38
2022-09-25T22:24:31.963Z,29.98
2022-09-25T22:29:37.293Z,27.65
2022-09-25T22:34:40.652Z,29.40
2022-09-25T22:39:42.431Z,31.08
2022-09-25T22:44:44.180Z,28.30
2022-09-25T22:49:45.985Z,31.33
2022-09-25T22:54:47.746Z,31.55
2022-09-25T22:59:51.770Z,36.13
2022-09-25T23:04:54.044Z,32.42
2022-09-25T23:09:55.875Z,35.47
2022-09-25T23:14:57.660Z,39.40
2022-09-25T23:19:59.953Z,37.08
2022-09-25T23:25:01.769Z,36.08
2022-09-25T23:30:04.244Z,36.53
2022-09-25T23:35:07.712Z,34.17
2022-09-25T23:40:15.231Z,35.80
2022-09-25T23:45:17.485Z,33.22
2022-09-25T23:50:19.330Z,36.15
2022-09-25T23:55:21.123Z,31.58
